X  Sluiten METAR luchtvaart weer gegevens      EBBR Brussels Airport
Temperatuur
22°C Temperatuur
15°C Dauwpunt
65% Vochtigheid



Wind
14 KM/U
9 MPH
4 M/S
8 KTS



280°
West
Huidig weer

Wat bewolking Wat bewolking
Luchtdruk 1018.92 (hPa) - 30.09 (inHg)
Zicht 6.2 (mijl) - 10 (km)
Vliegveld
Vliegveld code EBBR

Locatie : Brussels Airport
Afstand: 14 (km)

Metar:
EBBR 111850Z 28008KT 9999 FEW037 22/15 Q1019 NOSIG

Tijd: 06-11-2021 20:50 CEST